Time;durP1;ratioP1;P1;durP2;ratioP2;P2;SDS_P1;SDS_P2;PMS_P1;PMS_P2;Temp;Humidity;BMP_temperature;BMP_pressure;BME280_temperature;BME280_humidity;BME280_pressure;Samples;Min_cycle;Max_cycle;Signal;HPM_P1;HPM_P2
2021/08/29 00:00:19;;;;;;;;;;;24.30;58.00;;;;;;4996655;28;19926;-62
2021/08/29 00:02:46;;;;;;;;;;;24.30;58.00;;;;;;4996341;28;19926;-61
2021/08/29 00:05:13;;;;;;;;;;;24.30;58.00;;;;;;4996164;28;19979;-61
2021/08/29 00:07:40;;;;;;;;;;;24.30;58.00;;;;;;4995571;28;20339;-61
2021/08/29 00:10:08;;;;;;;;;;;24.30;58.00;;;;;;4996398;28;19926;-61
2021/08/29 00:12:35;;;;;;;;;;;24.30;58.00;;;;;;4995919;28;19973;-61
2021/08/29 00:15:02;;;;;;;;;;;24.30;58.00;;;;;;4995998;28;19969;-62
2021/08/29 00:17:29;;;;;;;;;;;24.30;58.00;;;;;;4996076;28;19926;-61
2021/08/29 00:19:56;;;;;;;;;;;24.30;58.00;;;;;;4994620;28;19926;-61
2021/08/29 00:22:23;;;;;;;;;;;24.30;58.00;;;;;;4993016;28;19930;-61
2021/08/29 00:24:50;;;;;;;;;;;24.30;58.00;;;;;;4992980;28;19965;-61
2021/08/29 00:27:17;;;;;;;;;;;24.30;58.00;;;;;;4992468;28;20389;-61
2021/08/29 00:29:44;;;;;;;;;;;24.20;58.00;;;;;;4991772;28;19930;-61
2021/08/29 00:32:12;;;;;;;;;;;24.30;58.00;;;;;;4991911;28;19986;-61
2021/08/29 00:34:40;;;;;;;;;;;24.20;58.00;;;;;;4991751;28;19933;-61
2021/08/29 00:37:07;;;;;;;;;;;24.30;58.00;;;;;;4991862;28;19971;-62
2021/08/29 00:39:36;;;;;;;;;;;24.20;58.00;;;;;;4991784;28;20025;-62
2021/08/29 00:42:05;;;;;;;;;;;24.30;58.00;;;;;;4992956;28;19926;-61
2021/08/29 00:44:32;;;;;;;;;;;24.20;58.00;;;;;;4992467;28;19945;-62
2021/08/29 00:46:59;;;;;;;;;;;24.30;58.00;;;;;;4991218;28;19965;-62
2021/08/29 00:49:26;;;;;;;;;;;24.20;58.00;;;;;;4992242;28;20435;-61
2021/08/29 00:51:54;;;;;;;;;;;24.30;58.00;;;;;;4992280;28;20254;-61
2021/08/29 00:54:28;;;;;;;;;;;24.20;58.00;;;;;;4992277;28;19933;-61
2021/08/29 00:56:54;;;;;;;;;;;24.20;58.00;;;;;;4991101;28;19929;-61
2021/08/29 00:59:23;;;;;;;;;;;24.20;58.00;;;;;;4992158;28;19929;-61
2021/08/29 01:01:54;;;;;;;;;;;24.20;58.00;;;;;;4975407;28;19984;-61
2021/08/29 01:04:24;;;;;;;;;;;24.20;58.00;;;;;;4992343;28;19930;-61
2021/08/29 01:06:56;;;;;;;;;;;24.20;58.00;;;;;;4992120;28;19965;-61
2021/08/29 01:09:23;;;;;;;;;;;24.20;58.00;;;;;;4991150;28;20450;-61
2021/08/29 01:11:52;;;;;;;;;;;24.20;58.00;;;;;;4991480;28;19925;-61
2021/08/29 01:14:26;;;;;;;;;;;24.20;58.00;;;;;;4991245;28;20012;-62
2021/08/29 01:16:55;;;;;;;;;;;24.20;58.00;;;;;;4992164;28;19991;-62
2021/08/29 01:19:28;;;;;;;;;;;24.20;58.00;;;;;;4991917;28;20382;-61
2021/08/29 01:21:56;;;;;;;;;;;24.20;58.00;;;;;;4990750;28;19977;-61
2021/08/29 01:24:24;;;;;;;;;;;24.20;58.00;;;;;;4992158;28;19953;-61
2021/08/29 01:27:00;;;;;;;;;;;24.20;58.00;;;;;;4991618;28;19965;-61
2021/08/29 01:29:28;;;;;;;;;;;24.20;58.00;;;;;;4990481;28;19926;-61
2021/08/29 01:31:55;;;;;;;;;;;24.20;58.00;;;;;;4991804;28;19975;-61
2021/08/29 01:34:22;;;;;;;;;;;24.20;58.00;;;;;;4990741;28;19965;-62
2021/08/29 01:36:51;;;;;;;;;;;24.20;58.00;;;;;;4990511;28;19926;-62
2021/08/29 01:39:19;;;;;;;;;;;24.20;58.00;;;;;;4991695;28;19933;-62
2021/08/29 01:41:48;;;;;;;;;;;24.20;58.00;;;;;;4990530;28;19969;-61
2021/08/29 01:44:19;;;;;;;;;;;24.20;58.00;;;;;;4990673;28;19926;-62
2021/08/29 01:46:46;;;;;;;;;;;24.20;58.00;;;;;;4991492;28;19980;-62
2021/08/29 01:49:13;;;;;;;;;;;24.20;58.00;;;;;;4991492;28;19982;-62
2021/08/29 01:51:41;;;;;;;;;;;24.20;58.00;;;;;;4991717;28;20031;-62
2021/08/29 01:54:08;;;;;;;;;;;24.20;58.00;;;;;;4991468;28;20037;-62
2021/08/29 01:56:54;;;;;;;;;;;24.20;58.00;;;;;;4990505;28;19971;-62
2021/08/29 01:59:21;;;;;;;;;;;24.20;58.00;;;;;;4991280;28;20014;-61
2021/08/29 02:01:48;;;;;;;;;;;24.20;58.10;;;;;;4991327;28;19955;-61
2021/08/29 02:04:15;;;;;;;;;;;24.20;58.00;;;;;;4990490;28;19926;-62
2021/08/29 02:06:45;;;;;;;;;;;24.20;58.00;;;;;;4991298;28;20420;-62
2021/08/29 02:09:12;;;;;;;;;;;24.20;58.00;;;;;;4990145;28;19934;-61
2021/08/29 02:11:41;;;;;;;;;;;24.20;58.00;;;;;;4991220;28;19975;-61
2021/08/29 02:14:10;;;;;;;;;;;24.20;58.00;;;;;;4990994;28;20044;-62
2021/08/29 02:16:40;;;;;;;;;;;24.20;58.00;;;;;;4972646;28;21363;-62
2021/08/29 02:19:07;;;;;;;;;;;24.20;58.10;;;;;;4990357;28;19926;-61
2021/08/29 02:21:35;;;;;;;;;;;24.20;58.10;;;;;;4974263;28;19926;-62
2021/08/29 02:24:03;;;;;;;;;;;24.20;58.10;;;;;;4990636;28;19926;-62
2021/08/29 02:26:30;;;;;;;;;;;24.20;58.10;;;;;;4990775;28;20378;-62
2021/08/29 02:28:58;;;;;;;;;;;24.10;58.00;;;;;;4990877;28;19926;-62
2021/08/29 02:31:25;;;;;;;;;;;24.20;58.10;;;;;;4990231;28;19971;-62
2021/08/29 02:33:52;;;;;;;;;;;24.20;58.10;;;;;;4990710;28;19925;-63
2021/08/29 02:36:19;;;;;;;;;;;24.20;58.10;;;;;;4989687;28;19926;-62
2021/08/29 02:38:47;;;;;;;;;;;24.20;58.10;;;;;;4989716;28;19926;-62
2021/08/29 02:41:15;;;;;;;;;;;24.10;58.00;;;;;;4990735;28;19930;-63
2021/08/29 02:43:44;;;;;;;;;;;24.20;58.10;;;;;;4990015;28;19947;-61
2021/08/29 02:46:11;;;;;;;;;;;24.20;58.00;;;;;;4989679;28;19945;-62
2021/08/29 02:48:43;;;;;;;;;;;24.10;58.00;;;;;;4990076;28;19930;-62
2021/08/29 02:51:14;;;;;;;;;;;24.20;58.10;;;;;;4989517;28;20439;-61
2021/08/29 02:53:42;;;;;;;;;;;24.20;58.10;;;;;;4990018;28;19965;-61
2021/08/29 02:56:09;;;;;;;;;;;24.20;58.10;;;;;;4983300;28;19930;-61
2021/08/29 02:58:37;;;;;;;;;;;24.20;58.10;;;;;;4989136;28;20025;-61
2021/08/29 03:01:04;;;;;;;;;;;24.20;58.10;;;;;;4990379;28;19925;-61
2021/08/29 03:03:31;;;;;;;;;;;24.10;58.00;;;;;;4995300;28;19926;-61
2021/08/29 03:05:59;;;;;;;;;;;24.10;58.00;;;;;;4990879;28;19960;-61
2021/08/29 03:08:26;;;;;;;;;;;24.10;58.00;;;;;;4990676;28;19926;-61
2021/08/29 03:10:53;;;;;;;;;;;24.20;58.10;;;;;;4990659;28;20339;-61
2021/08/29 03:13:20;;;;;;;;;;;24.10;58.00;;;;;;4989510;28;20017;-61
2021/08/29 03:15:47;;;;;;;;;;;24.20;58.10;;;;;;4990695;28;19926;-61
2021/08/29 03:18:15;;;;;;;;;;;24.10;58.00;;;;;;4990295;28;19987;-62
2021/08/29 03:20:42;;;;;;;;;;;24.20;58.00;;;;;;4990259;28;20447;-61
2021/08/29 03:23:09;;;;;;;;;;;24.20;58.00;;;;;;4972250;28;20006;-61
2021/08/29 03:25:36;;;;;;;;;;;24.20;58.00;;;;;;4989424;28;20447;-61
2021/08/29 03:28:03;;;;;;;;;;;24.20;58.00;;;;;;4989987;28;19937;-61
2021/08/29 03:30:30;;;;;;;;;;;24.20;58.00;;;;;;4989357;28;20481;-61
2021/08/29 03:32:57;;;;;;;;;;;24.20;58.00;;;;;;4990173;28;20270;-61
2021/08/29 03:35:25;;;;;;;;;;;24.20;58.00;;;;;;4989373;28;19975;-61
2021/08/29 03:37:52;;;;;;;;;;;24.20;58.00;;;;;;4988826;28;19926;-61
2021/08/29 03:40:19;;;;;;;;;;;24.20;58.00;;;;;;4990410;28;19926;-62
2021/08/29 03:42:46;;;;;;;;;;;24.20;58.00;;;;;;4989996;28;19968;-61
2021/08/29 03:45:13;;;;;;;;;;;24.20;58.00;;;;;;4988778;28;19969;-62
2021/08/29 03:47:40;;;;;;;;;;;24.20;58.00;;;;;;4988871;28;19957;-61
2021/08/29 03:50:08;;;;;;;;;;;24.20;58.00;;;;;;4988706;28;19926;-62
2021/08/29 03:52:35;;;;;;;;;;;24.20;57.90;;;;;;4971840;28;19933;-62
2021/08/29 03:55:02;;;;;;;;;;;24.20;58.00;;;;;;4989993;28;19975;-62
2021/08/29 03:57:30;;;;;;;;;;;24.10;58.50;;;;;;4992969;28;20332;-62
2021/08/29 03:59:57;;;;;;;;;;;24.10;57.90;;;;;;4991873;28;19926;-62
2021/08/29 04:02:24;;;;;;;;;;;24.20;58.00;;;;;;4993173;28;19929;-62
2021/08/29 04:04:52;;;;;;;;;;;24.20;58.00;;;;;;4975163;28;19925;-62
2021/08/29 04:07:19;;;;;;;;;;;24.20;58.00;;;;;;4992055;28;20051;-62
2021/08/29 04:09:47;;;;;;;;;;;24.20;58.00;;;;;;4993084;28;19975;-62
2021/08/29 04:12:15;;;;;;;;;;;24.20;58.00;;;;;;4993214;28;19995;-63
2021/08/29 04:14:43;;;;;;;;;;;24.20;58.00;;;;;;4974690;28;19968;-62
2021/08/29 04:17:11;;;;;;;;;;;24.20;58.00;;;;;;4992949;28;19926;-61
2021/08/29 04:19:41;;;;;;;;;;;24.20;58.00;;;;;;4975958;28;20374;-62
2021/08/29 04:22:09;;;;;;;;;;;24.20;58.00;;;;;;4993245;28;19955;-62
2021/08/29 04:24:36;;;;;;;;;;;24.10;57.90;;;;;;4992863;28;20442;-62
2021/08/29 04:27:03;;;;;;;;;;;24.10;57.90;;;;;;4991868;28;19932;-62
2021/08/29 04:29:30;;;;;;;;;;;24.20;58.00;;;;;;4992971;28;19930;-62
2021/08/29 04:31:57;;;;;;;;;;;24.20;58.00;;;;;;4991701;28;19969;-62
2021/08/29 04:34:24;;;;;;;;;;;24.20;58.00;;;;;;4991581;28;19980;-62
2021/08/29 04:36:51;;;;;;;;;;;24.10;57.90;;;;;;4992579;28;19979;-62
2021/08/29 04:39:18;;;;;;;;;;;24.20;58.00;;;;;;4975316;28;19926;-62
2021/08/29 04:41:45;;;;;;;;;;;24.10;57.90;;;;;;4992626;28;19930;-62
2021/08/29 04:44:12;;;;;;;;;;;24.20;58.00;;;;;;4992490;28;20377;-62
2021/08/29 04:46:39;;;;;;;;;;;24.10;57.90;;;;;;4992131;28;19941;-62
2021/08/29 04:49:06;;;;;;;;;;;24.10;57.90;;;;;;4992421;28;19930;-61
2021/08/29 04:51:33;;;;;;;;;;;24.20;58.00;;;;;;4991716;28;19926;-62
2021/08/29 04:54:00;;;;;;;;;;;24.20;58.00;;;;;;4973857;28;20443;-62
2021/08/29 04:56:27;;;;;;;;;;;24.20;58.00;;;;;;4992217;28;19925;-62
2021/08/29 04:58:56;;;;;;;;;;;24.20;58.00;;;;;;4973381;28;20203;-61
2021/08/29 05:01:26;;;;;;;;;;;24.20;58.00;;;;;;4991195;28;19934;-62
2021/08/29 05:03:54;;;;;;;;;;;24.20;58.00;;;;;;4992382;28;20017;-62
2021/08/29 05:06:21;;;;;;;;;;;24.20;58.00;;;;;;4991914;28;19987;-62
2021/08/29 05:08:48;;;;;;;;;;;24.20;57.90;;;;;;4991315;28;20297;-62
2021/08/29 05:11:15;;;;;;;;;;;24.20;57.90;;;;;;4991998;28;19926;-63
2021/08/29 05:13:42;;;;;;;;;;;24.20;57.90;;;;;;4992319;28;19925;-62
2021/08/29 05:16:09;;;;;;;;;;;24.20;58.00;;;;;;4992029;28;19979;-62
2021/08/29 05:18:36;;;;;;;;;;;24.20;57.90;;;;;;4992063;28;19976;-62
2021/08/29 05:21:03;;;;;;;;;;;24.20;57.90;;;;;;4992618;28;20361;-62
2021/08/29 05:23:32;;;;;;;;;;;24.20;57.90;;;;;;4991394;28;19933;-62
2021/08/29 05:25:59;;;;;;;;;;;24.20;57.90;;;;;;4992216;28;19969;-62
2021/08/29 05:28:26;;;;;;;;;;;24.20;57.90;;;;;;4990481;28;19948;-62
2021/08/29 05:30:53;;;;;;;;;;;24.20;57.90;;;;;;4992034;28;20004;-62
2021/08/29 05:33:20;;;;;;;;;;;24.20;57.90;;;;;;4990842;28;20328;-62
2021/08/29 05:35:47;;;;;;;;;;;24.20;57.90;;;;;;4990675;28;20416;-62
2021/08/29 05:38:14;;;;;;;;;;;24.20;57.90;;;;;;4973441;28;19961;-62
2021/08/29 05:40:41;;;;;;;;;;;24.20;57.90;;;;;;4990805;28;19926;-62
2021/08/29 05:43:08;;;;;;;;;;;24.20;57.90;;;;;;4990442;28;20008;-62
2021/08/29 05:45:35;;;;;;;;;;;24.20;57.80;;;;;;4992170;28;19926;-62
2021/08/29 05:48:02;;;;;;;;;;;24.20;57.90;;;;;;4991430;28;19925;-62
2021/08/29 05:50:29;;;;;;;;;;;24.20;57.80;;;;;;4990378;28;20386;-62
2021/08/29 05:52:56;;;;;;;;;;;24.20;57.80;;;;;;4991768;28;19926;-62
2021/08/29 05:55:23;;;;;;;;;;;24.20;57.80;;;;;;4991422;28;19979;-62
2021/08/29 05:57:52;;;;;;;;;;;24.20;57.80;;;;;;4991017;28;19975;-62
2021/08/29 06:00:19;;;;;;;;;;;24.20;57.80;;;;;;4991722;28;19957;-61
2021/08/29 06:02:47;;;;;;;;;;;24.20;57.80;;;;;;4990409;28;19975;-62
2021/08/29 06:05:15;;;;;;;;;;;24.30;57.80;;;;;;4991525;28;19926;-62
2021/08/29 06:07:42;;;;;;;;;;;24.20;57.80;;;;;;4974434;28;19995;-62
2021/08/29 06:10:10;;;;;;;;;;;24.30;57.80;;;;;;4990040;28;19975;-62
2021/08/29 06:12:37;;;;;;;;;;;24.30;57.80;;;;;;4990504;28;20008;-62
2021/08/29 06:15:04;;;;;;;;;;;24.30;57.80;;;;;;4991052;28;19995;-62
2021/08/29 06:17:31;;;;;;;;;;;24.30;57.80;;;;;;4991110;28;20262;-62
2021/08/29 06:19:58;;;;;;;;;;;24.30;57.70;;;;;;4990657;28;19930;-62
2021/08/29 06:22:25;;;;;;;;;;;24.30;57.60;;;;;;4991193;28;19926;-62
2021/08/29 06:24:52;;;;;;;;;;;24.30;57.60;;;;;;4991145;28;19926;-62
2021/08/29 06:27:19;;;;;;;;;;;24.30;57.60;;;;;;4990736;28;19947;-62
2021/08/29 06:29:46;;;;;;;;;;;24.40;57.60;;;;;;4989769;28;19956;-61
2021/08/29 06:32:13;;;;;;;;;;;24.30;57.60;;;;;;4990057;28;19926;-61
2021/08/29 06:34:40;;;;;;;;;;;24.40;57.60;;;;;;4972991;28;19926;-61
2021/08/29 06:37:07;;;;;;;;;;;24.40;57.60;;;;;;4991288;28;20073;-61
2021/08/29 06:39:35;;;;;;;;;;;24.30;57.50;;;;;;4972747;28;19979;-62
2021/08/29 06:42:04;;;;;;;;;;;24.30;57.40;;;;;;4973827;28;19932;-62
2021/08/29 06:44:31;;;;;;;;;;;24.40;57.50;;;;;;4991351;28;20351;-61
2021/08/29 06:46:58;;;;;;;;;;;24.40;57.40;;;;;;4990836;28;20039;-61
2021/08/29 06:49:25;;;;;;;;;;;24.40;57.40;;;;;;4989627;28;20007;-61
2021/08/29 06:51:51;;;;;;;;;;;24.40;57.40;;;;;;4990611;28;19972;-61
2021/08/29 06:54:19;;;;;;;;;;;24.40;57.40;;;;;;4989263;28;20046;-62
2021/08/29 06:56:45;;;;;;;;;;;24.40;57.40;;;;;;4990238;28;19926;-61
2021/08/29 06:59:12;;;;;;;;;;;24.40;57.40;;;;;;4989268;28;19961;-61
2021/08/29 07:01:39;;;;;;;;;;;24.40;57.40;;;;;;4989334;28;19926;-62
2021/08/29 07:04:07;;;;;;;;;;;24.40;57.40;;;;;;4990563;28;19932;-61
2021/08/29 07:06:35;;;;;;;;;;;24.40;57.40;;;;;;4989395;28;19926;-61
2021/08/29 07:09:02;;;;;;;;;;;24.40;57.40;;;;;;4972345;28;19978;-62
2021/08/29 07:11:29;;;;;;;;;;;24.40;57.30;;;;;;4990725;28;19972;-62
2021/08/29 07:13:56;;;;;;;;;;;24.40;57.30;;;;;;4990459;28;19926;-62
2021/08/29 07:16:23;;;;;;;;;;;24.40;57.30;;;;;;4990398;28;20456;-61
2021/08/29 07:18:50;;;;;;;;;;;24.40;57.30;;;;;;4973140;28;19926;-62
2021/08/29 07:21:17;;;;;;;;;;;24.40;57.30;;;;;;4990293;28;19929;-62
2021/08/29 07:23:44;;;;;;;;;;;24.40;57.20;;;;;;4990259;28;19926;-62
2021/08/29 07:26:13;;;;;;;;;;;24.40;57.20;;;;;;4990193;28;19975;-62
2021/08/29 07:28:42;;;;;;;;;;;24.50;57.20;;;;;;4990188;28;19926;-62
2021/08/29 07:31:09;;;;;;;;;;;24.50;57.20;;;;;;4993366;28;19930;-62
2021/08/29 07:33:36;;;;;;;;;;;24.50;57.10;;;;;;4993735;28;20013;-62
2021/08/29 07:36:04;;;;;;;;;;;24.50;57.10;;;;;;4993020;28;19926;-62
2021/08/29 07:38:31;;;;;;;;;;;24.50;57.10;;;;;;4992426;28;20376;-62
2021/08/29 07:40:58;;;;;;;;;;;24.50;57.00;;;;;;4993416;28;19926;-62
2021/08/29 07:43:25;;;;;;;;;;;24.50;57.00;;;;;;4992602;28;19984;-62
2021/08/29 07:45:51;;;;;;;;;;;24.60;57.00;;;;;;4992290;28;20417;-63
2021/08/29 07:48:18;;;;;;;;;;;24.60;57.00;;;;;;4992658;28;20298;-62
2021/08/29 07:50:45;;;;;;;;;;;24.60;57.00;;;;;;4993442;28;19991;-62
2021/08/29 07:53:13;;;;;;;;;;;24.60;56.90;;;;;;4992162;28;20424;-62
2021/08/29 07:55:40;;;;;;;;;;;24.60;57.40;;;;;;4991803;28;20389;-61
2021/08/29 07:58:06;;;;;;;;;;;24.60;56.80;;;;;;4992181;28;20036;-62
2021/08/29 08:00:33;;;;;;;;;;;24.60;56.80;;;;;;4992332;28;19933;-62
2021/08/29 08:03:01;;;;;;;;;;;24.60;56.70;;;;;;4992176;28;19925;-63
2021/08/29 08:05:29;;;;;;;;;;;24.70;56.80;;;;;;4976113;28;19926;-62
2021/08/29 08:07:56;;;;;;;;;;;24.70;56.70;;;;;;4992329;28;20413;-62
2021/08/29 08:10:23;;;;;;;;;;;24.70;56.60;;;;;;4992402;28;19940;-63
2021/08/29 08:12:50;;;;;;;;;;;24.70;56.50;;;;;;5007162;28;20008;-62
2021/08/29 08:15:18;;;;;;;;;;;24.80;56.50;;;;;;4992768;28;19933;-62
2021/08/29 08:17:45;;;;;;;;;;;24.80;56.40;;;;;;4992169;28;19980;-62
2021/08/29 08:20:13;;;;;;;;;;;24.80;56.70;;;;;;4991688;28;19930;-62
2021/08/29 08:22:40;;;;;;;;;;;24.80;56.40;;;;;;4991723;28;19961;-62
2021/08/29 08:25:08;;;;;;;;;;;24.80;56.30;;;;;;4993089;28;19980;-62
2021/08/29 08:27:36;;;;;;;;;;;24.90;56.30;;;;;;4992581;28;19971;-62
2021/08/29 08:30:04;;;;;;;;;;;24.90;56.20;;;;;;4975450;28;20451;-62
2021/08/29 08:32:31;;;;;;;;;;;24.90;56.10;;;;;;4992612;28;19969;-62
2021/08/29 08:34:58;;;;;;;;;;;24.90;56.00;;;;;;4992517;28;19979;-62
2021/08/29 08:37:29;;;;;;;;;;;24.90;56.00;;;;;;4992845;28;19932;-62
2021/08/29 08:39:56;;;;;;;;;;;25.00;56.10;;;;;;4992555;28;19929;-62
2021/08/29 08:42:24;;;;;;;;;;;24.90;56.00;;;;;;4990893;28;19929;-62
2021/08/29 08:44:51;;;;;;;;;;;25.00;56.10;;;;;;4992485;28;20001;-61
2021/08/29 08:47:19;;;;;;;;;;;25.00;55.90;;;;;;4991323;28;20340;-62
2021/08/29 08:49:47;;;;;;;;;;;25.00;55.90;;;;;;4991364;28;20366;-61
2021/08/29 08:52:18;;;;;;;;;;;25.00;56.00;;;;;;4974188;28;19961;-62
2021/08/29 08:54:46;;;;;;;;;;;24.90;56.00;;;;;;4991455;28;19949;-62
2021/08/29 08:57:17;;;;;;;;;;;25.00;56.00;;;;;;4991980;28;20012;-62
2021/08/29 08:59:45;;;;;;;;;;;25.00;56.00;;;;;;4992350;28;20460;-62
2021/08/29 09:02:13;;;;;;;;;;;25.00;55.90;;;;;;4973974;28;19930;-62
2021/08/29 09:04:43;;;;;;;;;;;25.00;55.90;;;;;;4991408;28;20258;-62
2021/08/29 09:07:10;;;;;;;;;;;25.00;55.90;;;;;;4992526;28;19933;-62
2021/08/29 09:09:37;;;;;;;;;;;25.10;55.90;;;;;;4991812;28;19926;-62
2021/08/29 09:12:05;;;;;;;;;;;25.00;55.80;;;;;;4992640;28;19991;-61
2021/08/29 09:14:45;;;;;;;;;;;25.10;55.80;;;;;;4992598;28;19933;-62
2021/08/29 09:17:41;;;;;;;;;;;25.10;55.80;;;;;;4974842;28;20017;-62
2021/08/29 09:20:14;;;;;;;;;;;25.10;55.80;;;;;;4996342;28;19933;-62
2021/08/29 09:22:41;;;;;;;;;;;25.10;55.70;;;;;;4996367;28;19973;-62
2021/08/29 09:25:20;;;;;;;;;;;25.10;55.80;;;;;;4995964;28;19976;-62
2021/08/29 09:27:48;;;;;;;;;;;25.10;55.80;;;;;;5011948;28;19932;-61
2021/08/29 09:30:15;;;;;;;;;;;25.00;55.80;;;;;;4995622;28;19980;-63
2021/08/29 09:32:49;;;;;;;;;;;25.00;55.80;;;;;;4996002;28;19925;-62
2021/08/29 09:35:17;;;;;;;;;;;25.00;55.70;;;;;;4994693;28;19981;-62
2021/08/29 09:37:44;;;;;;;;;;;25.10;55.80;;;;;;5012230;28;19929;-61
2021/08/29 09:40:15;;;;;;;;;;;25.10;55.70;;;;;;5011265;28;19930;-62
2021/08/29 09:42:43;;;;;;;;;;;25.10;55.60;;;;;;4995083;28;19968;-61
2021/08/29 09:45:19;;;;;;;;;;;25.10;55.50;;;;;;5011082;28;19925;-61
2021/08/29 09:47:46;;;;;;;;;;;25.20;55.50;;;;;;4994792;28;19976;-62
2021/08/29 09:50:14;;;;;;;;;;;25.20;55.50;;;;;;5010445;28;19929;-62
2021/08/29 09:52:41;;;;;;;;;;;25.20;55.50;;;;;;4995955;28;19926;-62
2021/08/29 09:55:09;;;;;;;;;;;25.20;55.50;;;;;;4995208;28;19926;-62
2021/08/29 09:57:36;;;;;;;;;;;25.20;55.40;;;;;;4991113;28;19926;-62
2021/08/29 10:00:06;;;;;;;;;;;25.20;55.40;;;;;;4990503;28;19991;-62
2021/08/29 10:02:33;;;;;;;;;;;25.20;55.50;;;;;;4990294;28;19926;-62
2021/08/29 10:05:17;;;;;;;;;;;25.10;55.40;;;;;;4991698;28;19926;-62
2021/08/29 10:08:04;;;;;;;;;;;25.10;55.50;;;;;;4990176;28;19930;-62
2021/08/29 10:10:32;;;;;;;;;;;25.10;55.50;;;;;;4991359;28;19926;-62
2021/08/29 10:12:59;;;;;;;;;;;25.20;55.50;;;;;;4991145;28;19930;-62
2021/08/29 10:15:26;;;;;;;;;;;25.20;55.50;;;;;;4990403;28;19991;-62
2021/08/29 10:17:56;;;;;;;;;;;25.20;55.50;;;;;;4991394;28;19926;-61
2021/08/29 10:20:24;;;;;;;;;;;25.20;55.50;;;;;;4990044;28;20351;-63
2021/08/29 10:22:51;;;;;;;;;;;25.20;55.40;;;;;;4990961;28;19926;-61
2021/08/29 10:25:19;;;;;;;;;;;25.20;55.30;;;;;;4990913;28;19976;-62
2021/08/29 10:27:59;;;;;;;;;;;25.30;55.30;;;;;;4990660;28;20005;-62
2021/08/29 10:30:27;;;;;;;;;;;25.30;55.20;;;;;;4989952;28;19988;-62
2021/08/29 10:32:55;;;;;;;;;;;25.30;55.10;;;;;;4990681;28;20266;-62
2021/08/29 10:35:23;;;;;;;;;;;25.30;55.10;;;;;;4990692;28;19925;-62
2021/08/29 10:37:50;;;;;;;;;;;25.30;55.00;;;;;;4991126;28;20005;-62
2021/08/29 10:40:18;;;;;;;;;;;25.40;55.00;;;;;;4990723;28;19965;-62
2021/08/29 10:42:45;;;;;;;;;;;25.30;55.00;;;;;;4990982;28;19934;-62
2021/08/29 10:45:12;;;;;;;;;;;25.30;55.00;;;;;;4989942;28;20012;-62
2021/08/29 10:47:41;;;;;;;;;;;25.30;55.00;;;;;;4989579;28;20455;-62
2021/08/29 10:50:09;;;;;;;;;;;25.30;55.00;;;;;;4989564;28;19926;-62
2021/08/29 10:52:36;;;;;;;;;;;25.30;55.10;;;;;;4972550;28;19926;-62
2021/08/29 10:55:05;;;;;;;;;;;25.30;55.00;;;;;;4990588;28;19973;-62
2021/08/29 10:57:34;;;;;;;;;;;25.30;55.10;;;;;;4990355;28;19969;-62
2021/08/29 11:00:02;;;;;;;;;;;25.30;55.10;;;;;;4973942;28;19957;-62
2021/08/29 11:02:43;;;;;;;;;;;25.20;55.20;;;;;;4990010;28;19933;-62
2021/08/29 11:05:13;;;;;;;;;;;25.20;55.30;;;;;;4973459;28;19926;-62
2021/08/29 11:07:41;;;;;;;;;;;25.20;55.40;;;;;;4990636;28;19972;-62
2021/08/29 11:10:10;;;;;;;;;;;25.20;55.50;;;;;;4990864;28;19933;-62
2021/08/29 11:12:37;;;;;;;;;;;25.10;55.40;;;;;;4990040;28;19969;-62
2021/08/29 11:15:07;;;;;;;;;;;25.20;55.50;;;;;;4990670;28;19981;-62
2021/08/29 11:17:38;;;;;;;;;;;25.20;55.40;;;;;;4990801;28;19933;-62
2021/08/29 11:20:04;;;;;;;;;;;25.20;55.40;;;;;;4990517;28;19930;-64
2021/08/29 11:22:36;;;;;;;;;;;25.20;55.40;;;;;;4990103;28;19979;-62
2021/08/29 11:25:09;;;;;;;;;;;25.20;55.30;;;;;;4990666;28;20037;-62
2021/08/29 11:30:10;;;;;;;;;;;25.20;55.20;;;;;;4989270;28;20338;-62
2021/08/29 11:32:46;;;;;;;;;;;25.30;55.20;;;;;;4990221;28;19933;-62
2021/08/29 11:35:15;;;;;;;;;;;25.30;55.20;;;;;;4989953;28;19926;-62
2021/08/29 11:38:02;;;;;;;;;;;25.30;55.20;;;;;;4990428;28;19949;-62
2021/08/29 11:40:47;;;;;;;;;;;25.30;55.30;;;;;;4968676;28;20007;-61
2021/08/29 11:43:34;;;;;;;;;;;25.30;55.20;;;;;;4989045;28;20420;-62
2021/08/29 11:46:01;;;;;;;;;;;25.30;55.10;;;;;;4990298;28;19933;-62
2021/08/29 11:48:30;;;;;;;;;;;25.30;55.10;;;;;;4990152;28;19926;-61
2021/08/29 11:50:58;;;;;;;;;;;25.30;55.10;;;;;;4989089;28;20389;-62
2021/08/29 11:53:26;;;;;;;;;;;25.30;55.10;;;;;;4972760;28;19965;-62
2021/08/29 11:55:56;;;;;;;;;;;25.30;55.10;;;;;;4989674;28;19926;-62
2021/08/29 11:58:23;;;;;;;;;;;25.30;55.00;;;;;;4971588;28;20332;-62
2021/08/29 12:00:59;;;;;;;;;;;25.30;54.90;;;;;;4990145;28;19949;-62
2021/08/29 12:03:30;;;;;;;;;;;25.40;54.90;;;;;;4989708;28;19926;-61
2021/08/29 12:06:13;;;;;;;;;;;25.40;54.80;;;;;;4989740;28;19932;-62
2021/08/29 12:09:16;;;;;;;;;;;25.40;54.90;;;;;;4990095;28;19926;-62
2021/08/29 12:11:43;;;;;;;;;;;25.40;54.80;;;;;;5049697;28;19928;-62
2021/08/29 12:14:28;;;;;;;;;;;25.30;54.90;;;;;;5049996;28;19979;-62
2021/08/29 12:16:59;;;;;;;;;;;25.30;55.00;;;;;;5050606;28;19935;-62
2021/08/29 12:19:28;;;;;;;;;;;25.30;55.10;;;;;;5053318;28;19925;-62
2021/08/29 12:21:55;;;;;;;;;;;25.30;55.10;;;;;;5052637;28;19925;-62
2021/08/29 12:24:26;;;;;;;;;;;25.30;55.20;;;;;;5052350;28;20055;-61
2021/08/29 12:27:06;;;;;;;;;;;25.20;55.20;;;;;;5053259;28;20308;-61
2021/08/29 12:29:42;;;;;;;;;;;25.20;55.20;;;;;;5053305;28;20519;-62
2021/08/29 12:32:10;;;;;;;;;;;25.20;55.30;;;;;;5052208;28;19994;-62
2021/08/29 12:34:37;;;;;;;;;;;25.20;55.40;;;;;;5053267;28;19928;-62
2021/08/29 12:37:10;;;;;;;;;;;25.20;55.30;;;;;;5036275;28;19947;-62
2021/08/29 12:39:37;;;;;;;;;;;25.20;55.30;;;;;;5036455;28;20011;-62
2021/08/29 12:42:21;;;;;;;;;;;25.30;55.30;;;;;;5052848;28;19929;-62
2021/08/29 12:44:48;;;;;;;;;;;25.30;55.20;;;;;;5042685;28;19925;-62
2021/08/29 12:47:16;;;;;;;;;;;25.30;55.10;;;;;;4991786;28;19929;-63
2021/08/29 12:49:43;;;;;;;;;;;25.30;55.10;;;;;;4974455;28;20332;-62
2021/08/29 12:52:15;;;;;;;;;;;25.30;55.00;;;;;;4992332;28;19964;-62
2021/08/29 12:54:42;;;;;;;;;;;25.30;55.00;;;;;;4991590;28;19972;-62
2021/08/29 12:57:10;;;;;;;;;;;25.30;55.00;;;;;;4991724;28;20369;-62
2021/08/29 12:59:37;;;;;;;;;;;25.40;55.00;;;;;;4992596;28;19926;-62
2021/08/29 13:02:05;;;;;;;;;;;25.40;55.00;;;;;;4992601;28;19929;-62
2021/08/29 13:04:32;;;;;;;;;;;25.40;55.00;;;;;;4991356;28;19926;-62
2021/08/29 13:07:03;;;;;;;;;;;25.40;55.00;;;;;;4992486;28;19926;-62
2021/08/29 13:09:32;;;;;;;;;;;25.40;55.00;;;;;;4975218;28;20032;-61
2021/08/29 13:12:00;;;;;;;;;;;25.30;55.00;;;;;;4990907;28;19948;-62
2021/08/29 13:14:31;;;;;;;;;;;25.30;55.00;;;;;;4991272;28;19926;-61
2021/08/29 13:17:18;;;;;;;;;;;25.30;55.00;;;;;;4990906;28;20008;-62
2021/08/29 13:19:55;;;;;;;;;;;25.30;55.00;;;;;;4975120;28;20274;-62
2021/08/29 13:22:28;;;;;;;;;;;25.40;55.00;;;;;;4991930;28;19972;-62
2021/08/29 13:24:55;;;;;;;;;;;25.40;55.00;;;;;;4991071;28;19936;-62
2021/08/29 13:27:22;;;;;;;;;;;25.40;55.00;;;;;;4991526;28;19972;-62
2021/08/29 13:29:55;;;;;;;;;;;25.40;55.00;;;;;;4990669;28;19926;-62
2021/08/29 13:32:30;;;;;;;;;;;25.40;54.90;;;;;;4974627;28;19968;-62
2021/08/29 13:35:14;;;;;;;;;;;25.40;54.90;;;;;;4992093;28;19979;-62
2021/08/29 13:37:45;;;;;;;;;;;25.40;54.90;;;;;;4991939;28;19926;-62
2021/08/29 13:40:13;;;;;;;;;;;25.40;54.90;;;;;;4991624;28;19965;-62
2021/08/29 13:42:47;;;;;;;;;;;25.40;55.00;;;;;;4991982;28;20009;-61
2021/08/29 13:45:16;;;;;;;;;;;25.40;55.00;;;;;;4990880;28;19926;-63
2021/08/29 13:47:43;;;;;;;;;;;25.40;54.90;;;;;;4990781;28;19926;-62
2021/08/29 13:50:10;;;;;;;;;;;25.50;54.90;;;;;;4974330;28;19973;-62
2021/08/29 13:52:38;;;;;;;;;;;25.40;54.80;;;;;;4990790;28;19932;-62
2021/08/29 13:55:13;;;;;;;;;;;25.50;54.90;;;;;;4974499;28;19972;-62
2021/08/29 13:57:41;;;;;;;;;;;25.50;55.50;;;;;;4989899;28;19979;-62
2021/08/29 14:00:09;;;;;;;;;;;25.40;54.80;;;;;;4990572;28;19969;-62
2021/08/29 14:02:36;;;;;;;;;;;25.40;54.80;;;;;;4990566;28;20385;-62
2021/08/29 14:05:03;;;;;;;;;;;25.40;54.90;;;;;;4991256;28;19926;-62
2021/08/29 14:07:30;;;;;;;;;;;25.40;55.00;;;;;;4991380;28;20378;-62
2021/08/29 14:09:57;;;;;;;;;;;25.40;54.90;;;;;;4974607;28;19976;-62
2021/08/29 14:12:24;;;;;;;;;;;25.40;54.80;;;;;;4990397;28;19972;-63
2021/08/29 14:14:51;;;;;;;;;;;25.50;54.90;;;;;;4991604;28;19926;-62
2021/08/29 14:17:18;;;;;;;;;;;25.50;54.90;;;;;;4991135;28;19980;-62
2021/08/29 14:19:45;;;;;;;;;;;25.50;54.90;;;;;;4991061;28;19937;-61
2021/08/29 14:22:12;;;;;;;;;;;25.50;54.90;;;;;;4990019;28;19926;-62
2021/08/29 14:24:39;;;;;;;;;;;25.50;54.90;;;;;;4973813;28;19965;-62
2021/08/29 14:27:06;;;;;;;;;;;25.50;54.90;;;;;;4990961;28;19992;-62